Dobbins Air Reserve Base Airport Marietta US
ICAO: KMGE
IATA: MGE
Category: Large
Scheduled Services: No

Elevation: 1068 ft
TransAlt. 18000 ft.

Airport Communications:
ATLANTA APP/DEP:121
ATIS:26.95
GND:125.3
NAVY OPS:34.02
ARNG OPS:47
PMSV METRO:27.475
94AW COMD POST:37.952
PTD:139.3
TWR:120.75

KMGE Zoom In..

If you have problems with the map follow the link
https://www.worldairports.se/pages/airport.php?
ICAO=KMGE

Runways:

(A) RW 11 length 10002 ft width 300 ft
ILS 109.70 / hdg 109

(B) RW 29 length 10002 ft width 300 ft
ILS 111.35 / hdg 289

Location; KMGE
Day. 16 / Time. 02.56 Zulu
* Altimeter: 30.11
* Temperature: 00° c. 32°f.
* Wind from: 290° Speed 12 kn.
Dewpoint: -03° c.
Visibility: 7 Statute Miles.
Clouds: Overcast 1500 ft.

KMGE 160256Z 29012KT 7SM OVC015 00/M03 A3011 RMK AO2A SLP204 T00041027 52010 $


Wind From 290°
Speed 12 kn.

 
 
jpsmedia.com for Web Design worldairports.se 2018   terms of use